Terminal Aerodrome Forecast
Issued by NWS

Home | Current Version | Previous Version | Text Only | Print | Product List | Glossary On
Versions: 1 2 3 4 5 6 7 8 9 10 11 12 13 14 15 16 17
549
FTUS41 KBTV 242330 AAB
TAFMPV
TAF AMD
KMPV 242330Z 2500/2524 00000KT 2SM -SNPL BR OVC015
      TEMPO 2500/2504 3SM -FZRASN BR SCT015 OVC035
     FM250400 00000KT 1 1/2SM -SN BR OVC010
     FM250700 00000KT 2SM BR BKN015 OVC020
     FM251300 31004KT P6SM OVC025
     FM251700 34006KT P6SM OVC035=

USA.gov is the U.S. government's official web portal to all federal, state and local government web resources and services.